Tolland, Massachusetts
Current Conditions -  °F | °C
As of 3:53 AM on Friday 24 Oct 2014 (Local Time) from KBAF Reporting Station
Overcast Overcast  
Wind Chill: 45°   Ceiling: 5000
Heat Index: 49°   Visibility: 10mi
Dew Point: 44°   Wind: 10mph
Humidity: 83%   Direction: 340°NNW
Pressure: 29.73"   Gusts: NA
Location:  42.0855°N, 72.9568°W
Report Text: KBAF 240753Z 34009KT 10SM FEW025 SCT041 OVC050 09/07 A2973 RMK AO2 RAE13 SLP068 P0000 T00940067
Loading
Personal Weather Stations






























Interactive Weather Map
Tropical Storm Tracking
New forecast layout! Learn more

10-Day Weather Forecast

Advertisements
Track Severe Weather on mobile